sensor_id;sensor_type;location;lat;lon;timestamp;temperature;humidity
8402;DHT22;4238;48.404;9.498;2023-05-16T04:01:40;8.40;99.90
8402;DHT22;4238;48.404;9.498;2023-05-16T04:04:07;8.50;99.90
8402;DHT22;4238;48.404;9.498;2023-05-16T04:06:34;8.50;99.90
8402;DHT22;4238;48.404;9.498;2023-05-16T04:09:01;8.60;99.90
8402;DHT22;4238;48.404;9.498;2023-05-16T04:11:27;8.50;99.90
8402;DHT22;4238;48.404;9.498;2023-05-16T04:13:54;8.60;99.90
8402;DHT22;4238;48.404;9.498;2023-05-16T04:16:21;8.60;99.90
8402;DHT22;4238;48.404;9.498;2023-05-16T04:18:49;8.60;99.90
8402;DHT22;4238;48.404;9.498;2023-05-16T04:21:16;8.70;99.90
8402;DHT22;4238;48.404;9.498;2023-05-16T04:23:43;8.80;99.90
8402;DHT22;4238;48.404;9.498;2023-05-16T04:26:10;8.90;99.90
8402;DHT22;4238;48.404;9.498;2023-05-16T04:28:37;8.90;99.90
8402;DHT22;4238;48.404;9.498;2023-05-16T04:31:04;8.90;99.90
8402;DHT22;4238;48.404;9.498;2023-05-16T04:33:31;9.00;99.90
8402;DHT22;4238;48.404;9.498;2023-05-16T04:35:59;9.10;99.90
8402;DHT22;4238;48.404;9.498;2023-05-16T04:38:26;9.10;99.90
8402;DHT22;4238;48.404;9.498;2023-05-16T04:40:53;9.20;99.90
8402;DHT22;4238;48.404;9.498;2023-05-16T04:43:20;9.30;99.90
8402;DHT22;4238;48.404;9.498;2023-05-16T04:45:47;9.40;99.90
8402;DHT22;4238;48.404;9.498;2023-05-16T04:48:15;9.40;99.90
8402;DHT22;4238;48.404;9.498;2023-05-16T04:50:42;9.50;99.90
8402;DHT22;4238;48.404;9.498;2023-05-16T04:53:10;9.50;99.90
8402;DHT22;4238;48.404;9.498;2023-05-16T04:55:39;9.50;99.90
8402;DHT22;4238;48.404;9.498;2023-05-16T04:58:06;9.60;99.90
8402;DHT22;4238;48.404;9.498;2023-05-16T05:00:33;9.60;99.90
8402;DHT22;4238;48.404;9.498;2023-05-16T05:03:00;9.60;99.90
8402;DHT22;4238;48.404;9.498;2023-05-16T05:05:27;9.60;99.90
8402;DHT22;4238;48.404;9.498;2023-05-16T05:07:56;9.70;99.90
8402;DHT22;4238;48.404;9.498;2023-05-16T05:10:24;9.60;99.90
8402;DHT22;4238;48.404;9.498;2023-05-16T05:12:52;9.70;99.90
8402;DHT22;4238;48.404;9.498;2023-05-16T05:15:19;9.70;99.90
8402;DHT22;4238;48.404;9.498;2023-05-16T05:17:46;9.70;99.90
8402;DHT22;4238;48.404;9.498;2023-05-16T05:20:13;9.80;99.90
8402;DHT22;4238;48.404;9.498;2023-05-16T05:22:40;9.80;99.90
8402;DHT22;4238;48.404;9.498;2023-05-16T05:25:07;9.80;99.90
8402;DHT22;4238;48.404;9.498;2023-05-16T05:27:36;9.90;99.90
8402;DHT22;4238;48.404;9.498;2023-05-16T05:30:04;9.90;99.90
8402;DHT22;4238;48.404;9.498;2023-05-16T05:32:31;10.00;99.90
8402;DHT22;4238;48.404;9.498;2023-05-16T05:34:58;10.00;99.90
8402;DHT22;4238;48.404;9.498;2023-05-16T05:37:25;9.90;99.90
8402;DHT22;4238;48.404;9.498;2023-05-16T05:39:52;9.90;99.90
8402;DHT22;4238;48.404;9.498;2023-05-16T05:42:19;10.00;99.90
8402;DHT22;4238;48.404;9.498;2023-05-16T05:44:47;10.00;99.90
8402;DHT22;4238;48.404;9.498;2023-05-16T05:47:14;10.10;99.90
8402;DHT22;4238;48.404;9.498;2023-05-16T05:49:42;10.20;99.90
8402;DHT22;4238;48.404;9.498;2023-05-16T05:52:09;10.20;99.90
8402;DHT22;4238;48.404;9.498;2023-05-16T05:54:36;10.30;99.90
8402;DHT22;4238;48.404;9.498;2023-05-16T05:57:03;10.20;99.90
8402;DHT22;4238;48.404;9.498;2023-05-16T05:59:30;10.20;99.90
8402;DHT22;4238;48.404;9.498;2023-05-16T06:01:58;10.20;99.90
8402;DHT22;4238;48.404;9.498;2023-05-16T06:04:25;10.00;99.90
8402;DHT22;4238;48.404;9.498;2023-05-16T06:06:52;10.10;99.90
8402;DHT22;4238;48.404;9.498;2023-05-16T06:09:20;9.90;99.90
8402;DHT22;4238;48.404;9.498;2023-05-16T06:11:47;9.80;99.90
8402;DHT22;4238;48.404;9.498;2023-05-16T06:14:14;9.90;99.90
8402;DHT22;4238;48.404;9.498;2023-05-16T06:16:41;10.00;99.90
8402;DHT22;4238;48.404;9.498;2023-05-16T06:19:09;10.00;99.90
8402;DHT22;4238;48.404;9.498;2023-05-16T06:21:37;10.00;99.90
8402;DHT22;4238;48.404;9.498;2023-05-16T06:24:04;10.00;99.90
8402;DHT22;4238;48.404;9.498;2023-05-16T06:26:32;10.00;99.90
8402;DHT22;4238;48.404;9.498;2023-05-16T06:28:59;9.90;99.90
8402;DHT22;4238;48.404;9.498;2023-05-16T06:31:26;9.80;99.90
8402;DHT22;4238;48.404;9.498;2023-05-16T06:33:53;9.70;99.90
8402;DHT22;4238;48.404;9.498;2023-05-16T06:36:21;9.70;99.90
8402;DHT22;4238;48.404;9.498;2023-05-16T06:38:48;9.80;99.90
8402;DHT22;4238;48.404;9.498;2023-05-16T06:41:15;9.70;99.90
8402;DHT22;4238;48.404;9.498;2023-05-16T06:43:42;9.80;99.90
8402;DHT22;4238;48.404;9.498;2023-05-16T06:46:09;9.70;99.90
8402;DHT22;4238;48.404;9.498;2023-05-16T06:48:36;9.70;99.90
8402;DHT22;4238;48.404;9.498;2023-05-16T06:51:03;9.70;99.90
8402;DHT22;4238;48.404;9.498;2023-05-16T06:53:32;9.80;99.90
8402;DHT22;4238;48.404;9.498;2023-05-16T06:55:59;9.70;99.90
8402;DHT22;4238;48.404;9.498;2023-05-16T06:58:25;9.70;99.90
8402;DHT22;4238;48.404;9.498;2023-05-16T07:00:52;9.60;99.90
8402;DHT22;4238;48.404;9.498;2023-05-16T07:03:19;9.70;99.90
8402;DHT22;4238;48.404;9.498;2023-05-16T07:05:46;9.80;99.90
8402;DHT22;4238;48.404;9.498;2023-05-16T07:08:15;9.80;99.90
8402;DHT22;4238;48.404;9.498;2023-05-16T07:10:44;9.90;99.90
8402;DHT22;4238;48.404;9.498;2023-05-16T07:13:11;9.90;99.90
8402;DHT22;4238;48.404;9.498;2023-05-16T07:15:38;9.90;99.90
8402;DHT22;4238;48.404;9.498;2023-05-16T07:18:04;9.90;99.90
8402;DHT22;4238;48.404;9.498;2023-05-16T07:20:31;9.90;99.90
8402;DHT22;4238;48.404;9.498;2023-05-16T07:22:58;9.90;99.90
8402;DHT22;4238;48.404;9.498;2023-05-16T07:25:25;10.00;99.90
8402;DHT22;4238;48.404;9.498;2023-05-16T07:27:53;9.90;99.90
8402;DHT22;4238;48.404;9.498;2023-05-16T07:30:20;9.80;99.90
8402;DHT22;4238;48.404;9.498;2023-05-16T07:32:48;9.70;99.90
8402;DHT22;4238;48.404;9.498;2023-05-16T07:35:15;9.80;99.90
8402;DHT22;4238;48.404;9.498;2023-05-16T07:37:42;9.70;99.90
8402;DHT22;4238;48.404;9.498;2023-05-16T07:40:09;9.80;99.90
8402;DHT22;4238;48.404;9.498;2023-05-16T07:42:36;9.70;99.90
8402;DHT22;4238;48.404;9.498;2023-05-16T07:45:06;9.70;99.90
8402;DHT22;4238;48.404;9.498;2023-05-16T07:47:33;9.80;99.90
8402;DHT22;4238;48.404;9.498;2023-05-16T07:50:00;9.80;99.90
8402;DHT22;4238;48.404;9.498;2023-05-16T07:52:27;9.80;99.90
8402;DHT22;4238;48.404;9.498;2023-05-16T07:54:54;9.90;99.90
8402;DHT22;4238;48.404;9.498;2023-05-16T07:57:22;9.80;99.90
8402;DHT22;4238;48.404;9.498;2023-05-16T07:59:49;9.70;99.90
8402;DHT22;4238;48.404;9.498;2023-05-16T08:02:18;9.70;99.90
8402;DHT22;4238;48.404;9.498;2023-05-16T08:04:45;9.80;99.90
8402;DHT22;4238;48.404;9.498;2023-05-16T08:07:13;9.50;99.90
8402;DHT22;4238;48.404;9.498;2023-05-16T08:09:40;9.40;99.90
8402;DHT22;4238;48.404;9.498;2023-05-16T08:12:08;9.30;99.90
8402;DHT22;4238;48.404;9.498;2023-05-16T08:14:35;9.40;99.90
8402;DHT22;4238;48.404;9.498;2023-05-16T08:17:02;9.50;99.90
8402;DHT22;4238;48.404;9.498;2023-05-16T08:19:31;9.40;99.90
8402;DHT22;4238;48.404;9.498;2023-05-16T08:21:58;9.40;99.90
8402;DHT22;4238;48.404;9.498;2023-05-16T08:24:25;9.40;99.90
8402;DHT22;4238;48.404;9.498;2023-05-16T08:26:53;9.40;99.90
8402;DHT22;4238;48.404;9.498;2023-05-16T08:29:20;9.40;99.90
8402;DHT22;4238;48.404;9.498;2023-05-16T08:31:47;9.50;99.90
8402;DHT22;4238;48.404;9.498;2023-05-16T08:34:14;9.60;99.90
8402;DHT22;4238;48.404;9.498;2023-05-16T08:36:42;9.50;99.90
8402;DHT22;4238;48.404;9.498;2023-05-16T08:39:09;9.60;99.90
8402;DHT22;4238;48.404;9.498;2023-05-16T08:41:37;9.60;99.90
8402;DHT22;4238;48.404;9.498;2023-05-16T08:44:04;9.60;99.90
8402;DHT22;4238;48.404;9.498;2023-05-16T08:46:32;9.70;99.90
8402;DHT22;4238;48.404;9.498;2023-05-16T08:49:00;9.70;99.90
8402;DHT22;4238;48.404;9.498;2023-05-16T08:51:32;9.60;99.90
8402;DHT22;4238;48.404;9.498;2023-05-16T08:54:05;9.70;99.90
8402;DHT22;4238;48.404;9.498;2023-05-16T08:56:33;9.50;99.90
8402;DHT22;4238;48.404;9.498;2023-05-16T08:59:01;9.50;99.90
8402;DHT22;4238;48.404;9.498;2023-05-16T09:01:29;9.60;99.90
8402;DHT22;4238;48.404;9.498;2023-05-16T09:03:57;9.60;99.90
8402;DHT22;4238;48.404;9.498;2023-05-16T09:06:24;9.50;99.90
8402;DHT22;4238;48.404;9.498;2023-05-16T09:08:51;9.50;99.90
8402;DHT22;4238;48.404;9.498;2023-05-16T09:11:20;9.60;99.90
8402;DHT22;4238;48.404;9.498;2023-05-16T09:13:47;9.60;99.90
8402;DHT22;4238;48.404;9.498;2023-05-16T09:16:15;9.50;99.90
8402;DHT22;4238;48.404;9.498;2023-05-16T09:18:44;9.50;99.90
8402;DHT22;4238;48.404;9.498;2023-05-16T09:21:12;9.40;99.90
8402;DHT22;4238;48.404;9.498;2023-05-16T09:23:41;9.50;99.90
8402;DHT22;4238;48.404;9.498;2023-05-16T09:26:09;9.50;99.90
8402;DHT22;4238;48.404;9.498;2023-05-16T09:28:38;9.50;99.90
8402;DHT22;4238;48.404;9.498;2023-05-16T09:31:19;9.60;99.90
8402;DHT22;4238;48.404;9.498;2023-05-16T09:33:47;9.60;99.90
8402;DHT22;4238;48.404;9.498;2023-05-16T09:36:14;9.60;99.90
8402;DHT22;4238;48.404;9.498;2023-05-16T09:38:41;9.60;99.90
8402;DHT22;4238;48.404;9.498;2023-05-16T09:41:09;9.60;99.90
8402;DHT22;4238;48.404;9.498;2023-05-16T09:43:39;9.70;99.90
8402;DHT22;4238;48.404;9.498;2023-05-16T09:46:07;9.60;99.90
8402;DHT22;4238;48.404;9.498;2023-05-16T09:48:34;9.70;99.90
8402;DHT22;4238;48.404;9.498;2023-05-16T09:51:04;9.70;99.90
8402;DHT22;4238;48.404;9.498;2023-05-16T09:53:32;9.50;99.90
8402;DHT22;4238;48.404;9.498;2023-05-16T09:56:04;9.60;99.90
8402;DHT22;4238;48.404;9.498;2023-05-16T09:58:33;9.50;99.90
8402;DHT22;4238;48.404;9.498;2023-05-16T10:01:02;9.60;99.90
8402;DHT22;4238;48.404;9.498;2023-05-16T10:03:29;9.70;99.90
8402;DHT22;4238;48.404;9.498;2023-05-16T10:05:56;9.70;99.90
8402;DHT22;4238;48.404;9.498;2023-05-16T10:08:25;9.80;99.90
8402;DHT22;4238;48.404;9.498;2023-05-16T10:10:53;9.70;99.90
8402;DHT22;4238;48.404;9.498;2023-05-16T10:13:21;9.60;99.90
8402;DHT22;4238;48.404;9.498;2023-05-16T10:15:49;9.60;99.90
8402;DHT22;4238;48.404;9.498;2023-05-16T10:18:21;9.70;99.90
8402;DHT22;4238;48.404;9.498;2023-05-16T10:20:50;9.70;99.90
8402;DHT22;4238;48.404;9.498;2023-05-16T10:23:19;9.80;99.90
8402;DHT22;4238;48.404;9.498;2023-05-16T10:25:48;9.90;99.90
8402;DHT22;4238;48.404;9.498;2023-05-16T10:28:15;9.90;99.90
8402;DHT22;4238;48.404;9.498;2023-05-16T10:30:44;10.00;99.90
8402;DHT22;4238;48.404;9.498;2023-05-16T10:33:11;10.10;99.90
8402;DHT22;4238;48.404;9.498;2023-05-16T10:35:40;10.20;99.90
8402;DHT22;4238;48.404;9.498;2023-05-16T10:38:09;10.20;99.90
8402;DHT22;4238;48.404;9.498;2023-05-16T10:40:37;10.30;99.90
8402;DHT22;4238;48.404;9.498;2023-05-16T10:43:06;10.30;99.90
8402;DHT22;4238;48.404;9.498;2023-05-16T10:45:33;10.30;99.90
8402;DHT22;4238;48.404;9.498;2023-05-16T10:48:01;10.20;99.90
8402;DHT22;4238;48.404;9.498;2023-05-16T10:50:37;10.40;99.90
8402;DHT22;4238;48.404;9.498;2023-05-16T10:53:20;10.50;99.90
8402;DHT22;4238;48.404;9.498;2023-05-16T10:56:07;10.60;99.90
8402;DHT22;4238;48.404;9.498;2023-05-16T10:58:46;10.50;99.90
8402;DHT22;4238;48.404;9.498;2023-05-16T11:01:31;10.70;99.90
8402;DHT22;4238;48.404;9.498;2023-05-16T11:04:07;10.70;99.90
8402;DHT22;4238;48.404;9.498;2023-05-16T11:06:42;10.70;99.90
8402;DHT22;4238;48.404;9.498;2023-05-16T11:09:25;10.90;99.90
8402;DHT22;4238;48.404;9.498;2023-05-16T11:11:55;10.90;99.90
8402;DHT22;4238;48.404;9.498;2023-05-16T11:14:24;10.90;99.90
8402;DHT22;4238;48.404;9.498;2023-05-16T11:16:59;10.90;99.90
8402;DHT22;4238;48.404;9.498;2023-05-16T11:19:31;11.00;99.90
8402;DHT22;4238;48.404;9.498;2023-05-16T11:22:09;11.00;99.90
8402;DHT22;4238;48.404;9.498;2023-05-16T11:24:49;10.90;99.90
8402;DHT22;4238;48.404;9.498;2023-05-16T11:27:24;10.90;99.90
8402;DHT22;4238;48.404;9.498;2023-05-16T11:29:53;11.20;99.90
8402;DHT22;4238;48.404;9.498;2023-05-16T11:32:21;11.50;99.90
8402;DHT22;4238;48.404;9.498;2023-05-16T11:34:49;11.90;99.90
8402;DHT22;4238;48.404;9.498;2023-05-16T11:37:17;12.10;99.90
8402;DHT22;4238;48.404;9.498;2023-05-16T11:39:46;12.10;89.90
8402;DHT22;4238;48.404;9.498;2023-05-16T11:42:13;11.90;92.20
8402;DHT22;4238;48.404;9.498;2023-05-16T11:44:40;11.70;99.90
8402;DHT22;4238;48.404;9.498;2023-05-16T11:47:07;11.30;93.50
8402;DHT22;4238;48.404;9.498;2023-05-16T11:49:35;11.30;99.90
8402;DHT22;4238;48.404;9.498;2023-05-16T11:52:02;11.30;98.00
8402;DHT22;4238;48.404;9.498;2023-05-16T11:54:29;11.50;97.60
8402;DHT22;4238;48.404;9.498;2023-05-16T11:56:58;11.70;96.10
8402;DHT22;4238;48.404;9.498;2023-05-16T11:59:25;11.80;76.00
8402;DHT22;4238;48.404;9.498;2023-05-16T12:01:52;12.00;95.20
8402;DHT22;4238;48.404;9.498;2023-05-16T12:04:19;12.30;88.10
8402;DHT22;4238;48.404;9.498;2023-05-16T12:06:57;12.70;29.70
8402;DHT22;4238;48.404;9.498;2023-05-16T12:09:25;12.70;25.70
8402;DHT22;4238;48.404;9.498;2023-05-16T12:11:52;12.50;18.70
8402;DHT22;4238;48.404;9.498;2023-05-16T12:14:21;12.30;34.00
8402;DHT22;4238;48.404;9.498;2023-05-16T12:16:48;12.00;37.80
8402;DHT22;4238;48.404;9.498;2023-05-16T12:19:17;12.10;54.00
8402;DHT22;4238;48.404;9.498;2023-05-16T12:21:44;11.90;53.60
8402;DHT22;4238;48.404;9.498;2023-05-16T12:24:11;11.80;39.90
8402;DHT22;4238;48.404;9.498;2023-05-16T12:26:39;11.70;46.30
8402;DHT22;4238;48.404;9.498;2023-05-16T12:29:07;11.50;52.10
8402;DHT22;4238;48.404;9.498;2023-05-16T12:31:38;11.70;52.90
8402;DHT22;4238;48.404;9.498;2023-05-16T12:34:15;11.50;48.00
8402;DHT22;4238;48.404;9.498;2023-05-16T12:36:42;11.60;61.10
8402;DHT22;4238;48.404;9.498;2023-05-16T12:39:11;12.00;63.40
8402;DHT22;4238;48.404;9.498;2023-05-16T12:41:40;12.00;44.80
8402;DHT22;4238;48.404;9.498;2023-05-16T12:44:10;12.20;42.60
8402;DHT22;4238;48.404;9.498;2023-05-16T12:46:44;12.30;41.20
8402;DHT22;4238;48.404;9.498;2023-05-16T12:49:11;12.40;39.70
8402;DHT22;4238;48.404;9.498;2023-05-16T12:51:39;12.20;16.80
8402;DHT22;4238;48.404;9.498;2023-05-16T12:54:10;11.90;42.00
8402;DHT22;4238;48.404;9.498;2023-05-16T12:56:38;11.90;33.30
8402;DHT22;4238;48.404;9.498;2023-05-16T12:59:05;11.90;62.90
8402;DHT22;4238;48.404;9.498;2023-05-16T13:01:32;11.90;52.20
8402;DHT22;4238;48.404;9.498;2023-05-16T13:04:01;12.10;67.20
8402;DHT22;4238;48.404;9.498;2023-05-16T13:06:28;12.10;38.40
8402;DHT22;4238;48.404;9.498;2023-05-16T13:08:55;12.10;32.70
8402;DHT22;4238;48.404;9.498;2023-05-16T13:11:22;12.00;27.80
8402;DHT22;4238;48.404;9.498;2023-05-16T13:13:50;11.90;21.90
8402;DHT22;4238;48.404;9.498;2023-05-16T13:16:17;11.60;39.80
8402;DHT22;4238;48.404;9.498;2023-05-16T13:18:44;11.50;51.60
8402;DHT22;4238;48.404;9.498;2023-05-16T13:21:12;11.40;49.70
8402;DHT22;4238;48.404;9.498;2023-05-16T13:23:39;11.20;66.70
8402;DHT22;4238;48.404;9.498;2023-05-16T13:26:06;11.10;66.90
8402;DHT22;4238;48.404;9.498;2023-05-16T13:28:34;11.10;72.10
8402;DHT22;4238;48.404;9.498;2023-05-16T13:31:02;11.00;71.10
8402;DHT22;4238;48.404;9.498;2023-05-16T13:33:29;11.00;76.40
8402;DHT22;4238;48.404;9.498;2023-05-16T13:35:55;10.80;81.50
8402;DHT22;4238;48.404;9.498;2023-05-16T13:38:24;10.70;90.30
8402;DHT22;4238;48.404;9.498;2023-05-16T13:40:51;10.60;94.30
8402;DHT22;4238;48.404;9.498;2023-05-16T13:43:18;10.60;97.90
8402;DHT22;4238;48.404;9.498;2023-05-16T13:45:44;10.70;97.30
8402;DHT22;4238;48.404;9.498;2023-05-16T13:48:11;10.50;99.90
8402;DHT22;4238;48.404;9.498;2023-05-16T13:50:38;10.50;99.90
8402;DHT22;4238;48.404;9.498;2023-05-16T13:53:05;10.50;99.90
8402;DHT22;4238;48.404;9.498;2023-05-16T13:55:34;10.40;99.90
8402;DHT22;4238;48.404;9.498;2023-05-16T13:58:01;10.50;99.90
8402;DHT22;4238;48.404;9.498;2023-05-16T14:00:28;10.60;99.90
8402;DHT22;4238;48.404;9.498;2023-05-16T14:02:55;10.40;99.90
8402;DHT22;4238;48.404;9.498;2023-05-16T14:05:22;10.40;99.90
8402;DHT22;4238;48.404;9.498;2023-05-16T14:07:48;10.50;99.90
8402;DHT22;4238;48.404;9.498;2023-05-16T14:10:15;10.40;99.90
8402;DHT22;4238;48.404;9.498;2023-05-16T14:12:44;10.40;99.90
8402;DHT22;4238;48.404;9.498;2023-05-16T14:15:10;10.50;99.90
8402;DHT22;4238;48.404;9.498;2023-05-16T14:17:37;10.50;99.90
8402;DHT22;4238;48.404;9.498;2023-05-16T14:20:05;10.40;99.90
8402;DHT22;4238;48.404;9.498;2023-05-16T14:22:35;10.30;99.90
8402;DHT22;4238;48.404;9.498;2023-05-16T14:25:03;10.00;99.90
8402;DHT22;4238;48.404;9.498;2023-05-16T14:27:30;10.20;99.90
8402;DHT22;4238;48.404;9.498;2023-05-16T14:29:58;10.30;99.90
8402;DHT22;4238;48.404;9.498;2023-05-16T14:32:25;10.30;99.90
8402;DHT22;4238;48.404;9.498;2023-05-16T14:34:52;10.30;99.90
8402;DHT22;4238;48.404;9.498;2023-05-16T14:37:19;10.30;99.90
8402;DHT22;4238;48.404;9.498;2023-05-16T14:39:46;10.20;99.90
8402;DHT22;4238;48.404;9.498;2023-05-16T14:42:15;10.10;99.90
8402;DHT22;4238;48.404;9.498;2023-05-16T14:44:42;9.80;99.90
8402;DHT22;4238;48.404;9.498;2023-05-16T14:47:10;9.80;99.90
8402;DHT22;4238;48.404;9.498;2023-05-16T14:49:38;9.70;99.90
8402;DHT22;4238;48.404;9.498;2023-05-16T14:52:05;9.70;99.90
8402;DHT22;4238;48.404;9.498;2023-05-16T14:54:32;9.70;99.90
8402;DHT22;4238;48.404;9.498;2023-05-16T14:56:59;9.60;99.90
8402;DHT22;4238;48.404;9.498;2023-05-16T14:59:28;9.70;99.90
8402;DHT22;4238;48.404;9.498;2023-05-16T15:01:55;9.60;99.90
8402;DHT22;4238;48.404;9.498;2023-05-16T15:04:25;9.70;99.90
8402;DHT22;4238;48.404;9.498;2023-05-16T15:06:52;9.80;99.90
8402;DHT22;4238;48.404;9.498;2023-05-16T15:09:19;9.90;99.90
8402;DHT22;4238;48.404;9.498;2023-05-16T15:11:46;9.80;99.90
8402;DHT22;4238;48.404;9.498;2023-05-16T15:14:13;9.80;99.90
8402;DHT22;4238;48.404;9.498;2023-05-16T15:16:40;9.80;99.90
8402;DHT22;4238;48.404;9.498;2023-05-16T15:19:07;9.80;99.90
8402;DHT22;4238;48.404;9.498;2023-05-16T15:21:35;9.70;99.90
8402;DHT22;4238;48.404;9.498;2023-05-16T15:24:03;9.60;99.90
8402;DHT22;4238;48.404;9.498;2023-05-16T15:26:29;9.50;99.90
8402;DHT22;4238;48.404;9.498;2023-05-16T15:28:57;9.50;99.90
8402;DHT22;4238;48.404;9.498;2023-05-16T15:31:24;9.50;99.90
8402;DHT22;4238;48.404;9.498;2023-05-16T15:33:50;9.60;99.90
8402;DHT22;4238;48.404;9.498;2023-05-16T15:36:17;9.70;99.90
8402;DHT22;4238;48.404;9.498;2023-05-16T15:38:46;9.60;99.90
8402;DHT22;4238;48.404;9.498;2023-05-16T15:41:12;9.60;99.90
8402;DHT22;4238;48.404;9.498;2023-05-16T15:43:40;9.50;99.90
8402;DHT22;4238;48.404;9.498;2023-05-16T15:46:07;9.40;99.90
8402;DHT22;4238;48.404;9.498;2023-05-16T15:48:34;9.50;99.90
8402;DHT22;4238;48.404;9.498;2023-05-16T15:51:01;9.30;99.90
8402;DHT22;4238;48.404;9.498;2023-05-16T15:53:28;9.30;99.90
8402;DHT22;4238;48.404;9.498;2023-05-16T15:55:57;9.20;99.90
8402;DHT22;4238;48.404;9.498;2023-05-16T15:58:24;9.10;99.90
8402;DHT22;4238;48.404;9.498;2023-05-16T16:00:50;9.00;99.90
8402;DHT22;4238;48.404;9.498;2023-05-16T16:03:19;8.90;99.90
8402;DHT22;4238;48.404;9.498;2023-05-16T16:05:46;8.80;99.90
8402;DHT22;4238;48.404;9.498;2023-05-16T16:08:13;8.90;99.90
8402;DHT22;4238;48.404;9.498;2023-05-16T16:10:40;9.10;99.90
8402;DHT22;4238;48.404;9.498;2023-05-16T16:13:09;9.20;99.90
8402;DHT22;4238;48.404;9.498;2023-05-16T16:15:37;9.30;99.90
8402;DHT22;4238;48.404;9.498;2023-05-16T16:18:06;9.20;99.90
8402;DHT22;4238;48.404;9.498;2023-05-16T16:20:33;9.10;99.90
8402;DHT22;4238;48.404;9.498;2023-05-16T16:23:00;9.20;99.90
8402;DHT22;4238;48.404;9.498;2023-05-16T16:25:27;9.10;99.90
8402;DHT22;4238;48.404;9.498;2023-05-16T16:27:54;9.00;99.90
8402;DHT22;4238;48.404;9.498;2023-05-16T16:30:22;9.00;99.90
8402;DHT22;4238;48.404;9.498;2023-05-16T16:32:49;9.00;99.90
8402;DHT22;4238;48.404;9.498;2023-05-16T16:35:16;8.90;99.90
8402;DHT22;4238;48.404;9.498;2023-05-16T16:37:43;9.00;99.90
8402;DHT22;4238;48.404;9.498;2023-05-16T16:40:11;8.90;99.90
8402;DHT22;4238;48.404;9.498;2023-05-16T16:42:38;9.00;99.90
8402;DHT22;4238;48.404;9.498;2023-05-16T16:45:06;8.90;99.90
8402;DHT22;4238;48.404;9.498;2023-05-16T16:47:34;8.90;99.90
8402;DHT22;4238;48.404;9.498;2023-05-16T16:50:04;8.90;99.90
8402;DHT22;4238;48.404;9.498;2023-05-16T16:52:31;9.00;99.90
8402;DHT22;4238;48.404;9.498;2023-05-16T16:54:58;9.00;99.90
8402;DHT22;4238;48.404;9.498;2023-05-16T16:57:25;9.00;99.90
8402;DHT22;4238;48.404;9.498;2023-05-16T16:59:52;8.90;99.90
8402;DHT22;4238;48.404;9.498;2023-05-16T17:02:18;8.90;99.90
8402;DHT22;4238;48.404;9.498;2023-05-16T17:04:47;8.90;99.90
8402;DHT22;4238;48.404;9.498;2023-05-16T17:07:14;8.90;99.90
8402;DHT22;4238;48.404;9.498;2023-05-16T17:09:40;8.80;99.90
8402;DHT22;4238;48.404;9.498;2023-05-16T17:12:08;8.80;99.90
8402;DHT22;4238;48.404;9.498;2023-05-16T17:14:43;8.90;99.90
8402;DHT22;4238;48.404;9.498;2023-05-16T17:17:10;8.90;99.90
8402;DHT22;4238;48.404;9.498;2023-05-16T17:19:37;8.80;99.90
8402;DHT22;4238;48.404;9.498;2023-05-16T17:22:05;8.70;99.90
8402;DHT22;4238;48.404;9.498;2023-05-16T17:24:33;8.70;99.90
8402;DHT22;4238;48.404;9.498;2023-05-16T17:27:00;8.60;99.90
8402;DHT22;4238;48.404;9.498;2023-05-16T17:29:26;8.60;99.90
8402;DHT22;4238;48.404;9.498;2023-05-16T17:31:53;8.60;99.90
8402;DHT22;4238;48.404;9.498;2023-05-16T17:34:20;8.60;99.90
8402;DHT22;4238;48.404;9.498;2023-05-16T17:36:47;8.60;99.90
8402;DHT22;4238;48.404;9.498;2023-05-16T17:39:16;8.60;99.90
8402;DHT22;4238;48.404;9.498;2023-05-16T17:41:42;8.70;99.90
8402;DHT22;4238;48.404;9.498;2023-05-16T17:44:10;8.60;99.90
8402;DHT22;4238;48.404;9.498;2023-05-16T17:46:37;8.60;99.90
8402;DHT22;4238;48.404;9.498;2023-05-16T17:49:04;8.60;99.90
8402;DHT22;4238;48.404;9.498;2023-05-16T17:51:44;8.60;99.90
8402;DHT22;4238;48.404;9.498;2023-05-16T17:54:11;8.50;99.90
8402;DHT22;4238;48.404;9.498;2023-05-16T17:56:40;8.60;99.90
8402;DHT22;4238;48.404;9.498;2023-05-16T17:59:07;8.70;99.90
8402;DHT22;4238;48.404;9.498;2023-05-16T18:01:34;8.60;99.90
8402;DHT22;4238;48.404;9.498;2023-05-16T18:04:01;8.60;99.90
8402;DHT22;4238;48.404;9.498;2023-05-16T18:06:29;8.60;99.90
8402;DHT22;4238;48.404;9.498;2023-05-16T18:08:56;8.70;99.90
8402;DHT22;4238;48.404;9.498;2023-05-16T18:11:23;8.70;99.90
8402;DHT22;4238;48.404;9.498;2023-05-16T18:13:52;8.60;99.90
8402;DHT22;4238;48.404;9.498;2023-05-16T18:16:19;8.60;99.90
8402;DHT22;4238;48.404;9.498;2023-05-16T18:18:47;8.50;99.90
8402;DHT22;4238;48.404;9.498;2023-05-16T18:21:14;8.60;99.90
8402;DHT22;4238;48.404;9.498;2023-05-16T18:23:41;8.70;99.90
8402;DHT22;4238;48.404;9.498;2023-05-16T18:26:08;8.60;99.90
8402;DHT22;4238;48.404;9.498;2023-05-16T18:28:35;8.50;99.90
8402;DHT22;4238;48.404;9.498;2023-05-16T18:31:03;8.50;99.90
8402;DHT22;4238;48.404;9.498;2023-05-16T18:33:30;8.50;99.90
8402;DHT22;4238;48.404;9.498;2023-05-16T18:35:57;8.50;99.90
8402;DHT22;4238;48.404;9.498;2023-05-16T18:38:24;8.50;99.90
8402;DHT22;4238;48.404;9.498;2023-05-16T18:40:51;8.50;99.90
8402;DHT22;4238;48.404;9.498;2023-05-16T18:43:18;8.50;99.90
8402;DHT22;4238;48.404;9.498;2023-05-16T18:45:44;8.40;99.90
8402;DHT22;4238;48.404;9.498;2023-05-16T18:48:13;8.40;99.90
8402;DHT22;4238;48.404;9.498;2023-05-16T18:50:40;8.40;99.90
8402;DHT22;4238;48.404;9.498;2023-05-16T18:53:07;8.40;99.90
8402;DHT22;4238;48.404;9.498;2023-05-16T18:55:34;8.40;99.90
8402;DHT22;4238;48.404;9.498;2023-05-16T18:58:00;8.30;99.90
8402;DHT22;4238;48.404;9.498;2023-05-16T19:00:27;8.30;99.90
8402;DHT22;4238;48.404;9.498;2023-05-16T19:02:54;8.30;99.90
8402;DHT22;4238;48.404;9.498;2023-05-16T19:05:23;8.30;99.90
8402;DHT22;4238;48.404;9.498;2023-05-16T19:07:50;8.40;99.90
8402;DHT22;4238;48.404;9.498;2023-05-16T19:10:17;8.40;99.90
8402;DHT22;4238;48.404;9.498;2023-05-16T19:12:44;8.30;99.90
8402;DHT22;4238;48.404;9.498;2023-05-16T19:15:13;8.20;99.90
8402;DHT22;4238;48.404;9.498;2023-05-16T19:17:40;8.10;99.90
8402;DHT22;4238;48.404;9.498;2023-05-16T19:20:07;8.10;99.90
8402;DHT22;4238;48.404;9.498;2023-05-16T19:22:36;8.20;99.90
8402;DHT22;4238;48.404;9.498;2023-05-16T19:25:04;8.10;99.90
8402;DHT22;4238;48.404;9.498;2023-05-16T19:27:32;8.10;99.90
8402;DHT22;4238;48.404;9.498;2023-05-16T19:29:58;8.10;99.90
8402;DHT22;4238;48.404;9.498;2023-05-16T19:32:26;8.20;99.90
8402;DHT22;4238;48.404;9.498;2023-05-16T19:34:53;8.20;99.90
8402;DHT22;4238;48.404;9.498;2023-05-16T19:37:20;8.10;99.90
8402;DHT22;4238;48.404;9.498;2023-05-16T19:39:48;8.10;99.90
8402;DHT22;4238;48.404;9.498;2023-05-16T19:42:15;8.10;99.90
8402;DHT22;4238;48.404;9.498;2023-05-16T19:44:41;8.10;99.90
8402;DHT22;4238;48.404;9.498;2023-05-16T19:47:08;8.10;99.90
8402;DHT22;4238;48.404;9.498;2023-05-16T19:49:35;8.10;99.90
8402;DHT22;4238;48.404;9.498;2023-05-16T19:52:03;8.10;99.50
8402;DHT22;4238;48.404;9.498;2023-05-16T19:54:32;8.10;99.90
8402;DHT22;4238;48.404;9.498;2023-05-16T19:57:00;8.00;99.90
8402;DHT22;4238;48.404;9.498;2023-05-16T19:59:27;8.00;99.90
8402;DHT22;4238;48.404;9.498;2023-05-16T20:01:56;8.10;95.20
8402;DHT22;4238;48.404;9.498;2023-05-16T20:04:23;8.00;99.50
8402;DHT22;4238;48.404;9.498;2023-05-16T20:06:50;8.00;97.70
8402;DHT22;4238;48.404;9.498;2023-05-16T20:09:17;7.90;96.30
8402;DHT22;4238;48.404;9.498;2023-05-16T20:11:44;7.90;93.50
8402;DHT22;4238;48.404;9.498;2023-05-16T20:14:12;8.00;96.30
8402;DHT22;4238;48.404;9.498;2023-05-16T20:16:39;7.90;91.20